Airfield :







YOU CAN JOIN US ON...

 
LOGIN :

Register | Disclaimer

   EN    FR    IT 

 









Legend :    VFR   Marginal VFR   IFR   Intensive IFR   Very Intensive IFR
Visi :
Ceiling :
>= 8 km
>= 3000ft
5 to 8 km
1000 to 3000 ft
1500m to 5 km
500 to 1000 ft
800 to 1500m
200 to 500 ft
< 800m
< 200 ft
Symbols :   Thunderstorms  Fog  Heavy snow  Heavy precipitations  Wind > 20 kt






- Airport Elevation : 1161 ft


KBML - Berlin Regional

CURRENT METAR :
  • 200152Z AUTO VRB05G16KT 10SM CLR M09/M19 A3019 RMK AO2 SLP242 T10941189

EXPIRED METARs :
  • 200052Z AUTO 30007G17KT 270V330 10SM CLR M08/M18 A3017 RMK AO2 SLP234 T10831183
  • 192352Z AUTO 33009G17KT 10SM CLR M07/M18 A3015 RMK AO2 SLP229 60000 T10721178 11028 21072 51026

TAF N/A



MET'MAP, your aeronautical weather chart ! - Copyright ORBIFLY December 2007 - Disclaimer

ORBIFLY MET'MAP TEAM :

Programming & Development : Alexandra Zaïnal
Concept & original design : Baudouin d'Aumeries
Assistance for programming : Marc-Olivier Méhu
Technical & hardware support : Manuel Goepfert

Contact : metmap@orbifly.com




SOURCES & CREDITS :

   NOAA